DP World Karachi QICT

20th June  2019

Vessel Voyage Vir No ETA ETD ATA ATD Cut Off EGM EGM Date
On Berth Vessel(s)
AS PAOLA 1 KPPI-0237-15062019 6/20/2019 23:50 6/21/2019 10:00 6/20/2019 14:30 - 6/19/2019 23:59 674/2019 3-Jun-19
HANSA AMERICA 925S KPPI-0238-15062019 6/20/2019 18:00 6/21/2019 18:00 6/20/2019 20:40 - 6/19/2019 13:00 703/2019 14-Jun-19
TEMPANOS 9125 KPPI-0230-11062019 6/20/2019 12:00 6/21/2019 10:00 6/20/2019 12:30 - 6/19/2019 23:59 690/2019 11-Jun-19
Upcomming or Old Vessel(s)
MAERSK BROOKLYN 926S - 6/27/2019 12:00 6/28/2019 20:00 - - 6/26/2019 13:00 732/2019 21-Jun-19
MOL GENEROSITY 125 KPPI-0244-19062019 6/26/2019 20:00 6/27/2019 10:00 - - 6/25/2019 23:59 725/2019 19-Jun-19
CMA CGM TITUS 9126 KPPI-0243-19062019 6/26/2019 12:00 6/27/2019 10:00 - - 6/25/2019 23:59 722/2019 18-Jun-19
MAERSK SENTOSA 925W KPPI-0245-21062019 6/25/2019 9:00 6/26/2019 23:59 - - 6/24/2019 8:00 720/2019 18-Jun-19
APL NEW YORK 2 KPPI-0242-19062019 6/24/2019 12:00 6/27/2019 10:00 - - 6/24/2019 23:59 721/2019 18-Jun-19
MSC PAMELA 919 - 6/24/2019 0:00 6/25/2019 0:00 - - 6/23/2019 23:59 728/2019 20-Jun-19
GSL TIANJIN 9126 KPPI-0241-19062019 6/23/2019 12:00 6/28/2019 10:00 - - 6/26/2019 23:59 - -
MS TIGER 86 KPPI-0239-17062019 6/22/2019 15:00 6/23/2019 9:00 - - 6/21/2019 23:59 716/2019 17-Jun-19
HAPPY HELENA 926S KPPI-0240-17062019 6/22/2019 9:00 6/24/2019 0:00 - - 6/21/2019 13:00 704/2019 14-Jun-19
COSCO JAPAN 74 KPPI-0235-12062019 6/21/2019 15:00 6/23/2019 12:00 - - 6/20/2019 23:59 698/2019 12-Jun-19
MOL GRANDEUR 61 KPPI-0233-12062019 6/19/2019 20:00 6/20/2019 10:00 6/19/2019 16:40 6/20/2019 6:40 6/18/2019 23:59 691/2019 11-Jun-19
MAERSK DENVER 924W KPPI-0234-12062019 6/18/2019 18:00 6/19/2019 23:00 6/18/2019 18:50 6/19/2019 19:25 6/17/2019 8:00 694/2019 11-Jun-19
MSC ASYA 925 KPPI-0232-11062019 6/18/2019 13:00 6/20/2019 10:00 6/18/2019 10:50 6/20/2019 9:15 6/17/2019 23:59 689/2019 11-Jun-19
MSC SANA 918 KPPI-0231-11062019 6/17/2019 13:00 6/18/2019 0:00 6/17/2019 10:00 6/18/2019 12:50 6/16/2019 23:59 688/2019 11-Jun-19
DIYALA 19024 KPPI-0236-12062019 6/15/2019 16:00 6/16/2019 13:00 6/15/2019 18:00 6/16/2019 11:45 6/14/2019 23:59 681/2019 10-Jun-19
SAFMARINE NYASSA 925S KPPI-0229-10062019 6/15/2019 15:00 6/17/2019 6:00 6/15/2019 13:50 6/17/2019 4:00 6/14/2019 13:00 679/2019 7-Jun-19
MAERSK SALINA 924E KPPI-0225-04062019 6/14/2019 15:00 6/15/2019 6:00 6/14/2019 16:20 6/17/2019 6:35 6/13/2019 23:59 678/2019 7-Jun-19